Time;durP1;ratioP1;P1;durP2;ratioP2;P2;SDS_P1;SDS_P2;PMS_P1;PMS_P2;Temp;Humidity;BMP_temperature;BMP_pressure;BME280_temperature;BME280_humidity;BME280_pressure;Samples;Min_cycle;Max_cycle;Signal;HPM_P1;HPM_P2
2022/05/11 08:06:34;;;;;;;6.82;4.05;;;21.60;41.60;;;;;;6262716;22;20212;-91
2022/05/11 08:09:41;;;;;;;4.55;4.15;;;21.70;40.80;;;;;;6217447;23;20178;-91
2022/05/11 08:35:10;;;;;;;6.40;3.30;;;22.80;34.60;;;;;;6085540;23;20215;-93
2022/05/11 08:37:47;;;;;;;3.85;3.40;;;23.10;35.10;;;;;;6080083;23;20227;-88
2022/05/11 08:40:23;;;;;;;5.00;3.70;;;23.60;33.70;;;;;;6098129;23;20208;-89
2022/05/11 08:42:52;;;;;;;5.32;3.55;;;24.50;31.10;;;;;;6095475;23;20178;-87
2022/05/11 08:45:19;;;;;;;3.60;3.30;;;25.50;25.60;;;;;;6095925;23;20211;-86
2022/05/11 08:48:17;;;;;;;4.10;3.28;;;25.90;24.50;;;;;;6190167;23;20185;-85
2022/05/11 08:50:48;;;;;;;4.55;3.58;;;27.40;21.00;;;;;;6182384;23;20536;-86
2022/05/11 08:53:29;;;;;;;3.83;3.35;;;28.90;17.60;;;;;;6183024;23;20201;-86
2022/05/11 08:56:02;;;;;;;5.75;3.50;;;30.20;15.80;;;;;;6194507;23;20197;-86
2022/05/11 08:58:45;;;;;;;3.72;3.30;;;30.60;14.50;;;;;;6215746;23;20598;-86
2022/05/11 09:01:28;;;;;;;6.68;3.58;;;32.30;11.80;;;;;;6215909;23;20185;-86
2022/05/11 09:04:00;;;;;;;6.03;4.00;;;33.10;11.00;;;;;;6215553;23;20232;-86
2022/05/11 09:06:30;;;;;;;6.80;3.92;;;34.10;9.40;;;;;;6215024;23;20177;-86
2022/05/11 09:08:59;;;;;;;4.57;4.00;;;34.80;9.40;;;;;;6213744;23;20232;-87
2022/05/11 09:11:54;;;;;;;5.15;3.97;;;34.70;7.60;;;;;;6217362;23;20158;-86
2022/05/11 09:14:47;;;;;;;6.07;4.03;;;34.10;8.00;;;;;;6216999;23;20210;-87
2022/05/11 09:17:24;;;;;;;4.28;3.88;;;33.90;8.90;;;;;;6222681;23;20157;-86
2022/05/11 09:20:18;;;;;;;4.35;3.88;;;34.20;9.10;;;;;;6217607;23;20209;-86
2022/05/11 09:23:07;;;;;;;9.50;4.03;;;34.80;7.30;;;;;;6217845;23;20486;-86
2022/05/11 09:25:57;;;;;;;5.50;3.75;;;34.90;7.10;;;;;;6217041;23;20240;-88
2022/05/11 09:28:31;;;;;;;5.18;4.25;;;34.20;7.20;;;;;;6218269;23;20161;-86
2022/05/11 09:31:26;;;;;;;8.05;4.20;;;34.00;7.50;;;;;;6217601;23;20275;-87
2022/05/11 09:34:01;;;;;;;4.60;3.83;;;33.40;8.70;;;;;;6218119;23;20487;-86
2022/05/11 09:36:36;;;;;;;4.30;3.90;;;34.20;7.60;;;;;;6217473;23;20158;-87
2022/05/11 09:39:13;;;;;;;5.35;4.05;;;35.30;6.70;;;;;;6217452;23;20204;-86
2022/05/11 09:41:43;;;;;;;4.50;3.90;;;36.10;5.30;;;;;;6217167;23;20717;-87
2022/05/11 09:44:26;;;;;;;5.88;3.90;;;34.70;5.60;;;;;;6217265;23;20213;-86
2022/05/11 09:47:00;;;;;;;5.05;3.90;;;35.60;5.40;;;;;;6216760;23;20173;-87
2022/05/11 09:49:29;;;;;;;4.38;4.07;;;36.60;4.30;;;;;;6216658;23;20232;-86
2022/05/11 09:52:00;;;;;;;6.03;4.35;;;37.10;3.80;;;;;;6217109;23;20157;-87
2022/05/11 09:55:04;;;;;;;5.03;4.63;;;36.70;5.00;;;;;;6230642;23;20205;-87
2022/05/11 09:58:16;;;;;;;6.20;4.60;;;37.00;4.60;;;;;;6237576;23;20252;-86
2022/05/11 10:00:47;;;;;;;6.72;4.80;;;36.30;4.00;;;;;;6217117;23;20652;-86
2022/05/11 10:03:30;;;;;;;6.68;4.70;;;36.10;6.00;;;;;;6217574;23;20169;-86
2022/05/11 10:05:58;;;;;;;5.18;4.78;;;36.20;4.00;;;;;;6215957;22;20213;-87
2022/05/11 10:08:44;;;;;;;5.45;4.60;;;35.70;5.40;;;;;;6217354;23;20164;-87
2022/05/11 10:11:22;;;;;;;7.28;4.40;;;35.00;6.00;;;;;;6216666;23;20188;-87
2022/05/11 10:14:02;;;;;;;5.30;4.80;;;35.30;5.60;;;;;;6216710;22;20173;-87
2022/05/11 10:22:57;;;;;;;4.88;4.47;;;35.60;7.00;;;;;;6216543;23;20205;-87
2022/05/11 10:26:10;;;;;;;6.82;4.47;;;36.30;4.40;;;;;;6216750;23;20648;-87
2022/05/11 10:28:50;;;;;;;5.57;4.18;;;35.50;4.80;;;;;;6217053;23;20164;-87
2022/05/11 10:31:32;;;;;;;4.68;4.28;;;34.80;5.20;;;;;;6217894;23;20180;-87
2022/05/11 10:34:20;;;;;;;4.32;3.92;;;34.70;6.20;;;;;;6217903;23;20226;-87
2022/05/11 10:37:13;;;;;;;6.93;3.95;;;34.10;6.50;;;;;;6217748;23;20536;-87
2022/05/11 10:39:54;;;;;;;5.13;3.47;;;34.80;6.80;;;;;;6216433;23;20683;-87
2022/05/11 10:42:34;;;;;;;4.90;3.78;;;34.60;5.20;;;;;;6215953;23;20193;-87
2022/05/11 10:45:13;;;;;;;4.70;3.60;;;34.40;6.10;;;;;;6217238;23;20211;-87
2022/05/11 10:48:12;;;;;;;5.25;3.75;;;33.50;6.00;;;;;;6216850;23;20158;-87
2022/05/11 10:50:55;;;;;;;5.40;3.55;;;33.70;8.30;;;;;;6215897;23;20205;-87
2022/05/11 10:53:35;;;;;;;3.90;3.50;;;33.00;8.20;;;;;;6217203;23;20180;-87
2022/05/11 10:56:23;;;;;;;3.60;3.30;;;33.20;8.60;;;;;;6217125;23;20187;-87
2022/05/11 10:59:19;;;;;;;7.25;3.75;;;33.40;6.50;;;;;;6216012;23;20248;-86
2022/05/11 11:02:22;;;;;;;3.53;3.20;;;32.80;7.10;;;;;;6216916;23;20241;-86
2022/05/11 11:05:07;;;;;;;3.20;2.90;;;31.70;7.80;;;;;;6216414;23;20204;-87
2022/05/11 11:07:40;;;;;;;3.20;3.00;;;31.30;10.00;;;;;;6215002;23;20185;-87
2022/05/11 11:10:20;;;;;;;3.35;3.03;;;30.40;10.60;;;;;;6216593;23;20538;-86
2022/05/11 11:13:22;;;;;;;5.13;2.85;;;29.90;13.70;;;;;;6216665;23;20161;-87
2022/05/11 11:15:54;;;;;;;6.38;3.10;;;29.40;12.40;;;;;;6154021;23;20205;-87
2022/05/11 11:18:31;;;;;;;3.42;2.40;;;28.90;12.00;;;;;;6154368;23;20607;-87
2022/05/11 11:21:09;;;;;;;5.65;2.55;;;28.60;13.00;;;;;;6152298;23;20202;-86
2022/05/11 11:23:38;;;;;;;3.15;2.60;;;28.40;12.10;;;;;;6154307;23;20202;-86
2022/05/11 11:26:14;;;;;;;5.03;3.00;;;28.20;13.00;;;;;;6154096;23;20205;-86
2022/05/11 11:29:36;;;;;;;4.35;2.63;;;28.30;13.00;;;;;;6153950;23;20173;-89
2022/05/11 11:32:16;;;;;;;3.35;2.60;;;27.90;12.80;;;;;;6154819;23;20181;-88
2022/05/11 11:35:19;;;;;;;9.75;2.72;;;27.80;13.70;;;;;;6154131;23;20269;-87
2022/05/11 11:38:00;;;;;;;2.45;2.28;;;27.90;12.90;;;;;;6156873;23;20645;-88
2022/05/11 11:41:05;;;;;;;2.97;2.67;;;27.90;15.60;;;;;;6156880;23;20737;-88
2022/05/11 11:43:54;;;;;;;4.57;2.50;;;27.70;11.40;;;;;;6155069;23;20198;-87
2022/05/11 11:46:41;;;;;;;5.18;2.67;;;27.60;15.40;;;;;;6153981;23;20206;-88
2022/05/11 11:49:32;;;;;;;4.22;2.67;;;27.70;13.10;;;;;;6154263;23;20199;-88
2022/05/11 11:52:07;;;;;;;3.63;2.90;;;27.70;14.40;;;;;;6177599;23;20173;-88
2022/05/11 11:54:49;;;;;;;5.18;2.50;;;27.70;14.00;;;;;;6216681;23;20236;-91
2022/05/11 11:57:35;;;;;;;3.15;2.65;;;27.50;14.10;;;;;;6218397;23;20159;-89
2022/05/11 12:03:30;;;;;;;3.55;2.75;;;27.30;14.00;;;;;;6214248;23;20180;-92
2022/05/11 12:15:01;;;;;;;2.90;2.33;;;27.30;13.90;;;;;;6215078;23;20229;-89
2022/05/11 12:17:53;;;;;;;4.20;2.30;;;27.10;12.50;;;;;;6219004;23;20165;-89
2022/05/11 12:20:22;;;;;;;5.97;2.60;;;27.20;13.50;;;;;;6217226;23;20203;-89
2022/05/11 12:23:12;;;;;;;3.88;2.50;;;27.30;12.60;;;;;;6216636;23;20193;-91
2022/05/11 12:25:54;;;;;;;3.38;2.40;;;27.20;13.90;;;;;;6216137;23;20215;-91
2022/05/11 12:28:27;;;;;;;4.70;2.40;;;27.00;11.60;;;;;;6218212;23;20523;-91
2022/05/11 12:30:55;;;;;;;3.92;2.25;;;27.10;13.00;;;;;;6217052;23;20229;-89
2022/05/11 12:33:32;;;;;;;2.78;2.08;;;27.20;11.30;;;;;;6218033;23;20168;-89
2022/05/11 12:36:02;;;;;;;5.35;2.30;;;27.40;12.50;;;;;;6217598;23;20205;-90
2022/05/11 12:38:41;;;;;;;3.65;2.20;;;27.30;11.00;;;;;;6233143;23;20172;-88
2022/05/11 12:41:21;;;;;;;3.90;2.42;;;27.30;11.80;;;;;;6219828;23;20190;-88
2022/05/11 12:43:57;;;;;;;5.60;2.50;;;27.40;13.20;;;;;;6216236;23;20158;-90
2022/05/11 12:46:25;;;;;;;6.85;2.35;;;27.20;12.30;;;;;;6215215;23;20196;-90
2022/05/11 12:49:40;;;;;;;3.17;2.60;;;27.20;12.40;;;;;;6217148;23;20193;-89
2022/05/11 12:52:16;;;;;;;2.78;2.28;;;27.20;11.00;;;;;;6219297;23;20162;-89
2022/05/11 12:54:57;;;;;;;9.05;2.35;;;27.10;11.10;;;;;;6218144;23;20197;-89
2022/05/11 12:57:38;;;;;;;6.82;2.40;;;27.10;10.60;;;;;;6220257;23;20164;-89
2022/05/11 13:00:13;;;;;;;3.22;2.33;;;27.00;11.30;;;;;;6220814;23;20216;-89
2022/05/11 13:02:42;;;;;;;3.05;2.35;;;26.90;12.00;;;;;;6217347;23;20684;-89
2022/05/11 13:05:15;;;;;;;5.50;2.65;;;27.00;10.70;;;;;;6217242;23;20205;-89
2022/05/11 13:08:00;;;;;;;7.18;2.22;;;27.20;11.20;;;;;;6220112;23;20181;-89
2022/05/11 13:24:36;;;;;;;2.28;2.05;;;26.90;10.90;;;;;;6221571;23;20185;-89
2022/05/11 13:27:34;;;;;;;3.17;1.90;;;27.00;11.30;;;;;;6220087;23;20188;-89
2022/05/11 13:30:17;;;;;;;2.45;2.15;;;27.10;11.40;;;;;;6217305;23;20169;-89
2022/05/11 13:32:49;;;;;;;6.35;2.30;;;27.00;11.80;;;;;;6218042;23;20168;-90
2022/05/11 13:35:35;;;;;;;6.07;2.17;;;27.20;11.00;;;;;;6218189;23;20154;-90
2022/05/11 13:38:26;;;;;;;3.63;2.30;;;27.20;11.20;;;;;;6217651;23;20158;-91
2022/05/11 13:41:17;;;;;;;3.45;2.00;;;27.20;11.90;;;;;;6182922;23;20201;-90
2022/05/11 13:43:50;;;;;;;3.22;1.90;;;27.20;11.40;;;;;;6218195;23;20158;-90
2022/05/11 13:49:43;;;;;;;3.28;2.30;;;27.20;11.80;;;;;;6219473;23;20979;-86
2022/05/11 13:52:50;;;;;;;4.85;2.40;;;27.30;11.10;;;;;;6218744;23;20169;-87
2022/05/11 13:55:42;;;;;;;4.57;2.20;;;27.30;10.70;;;;;;6221072;23;20188;-88
2022/05/11 13:58:37;;;;;;;4.18;2.45;;;27.30;11.80;;;;;;6217828;23;20610;-89
2022/05/11 14:01:59;;;;;;;3.05;2.22;;;27.30;11.50;;;;;;6216766;23;20540;-91
2022/05/11 14:04:31;;;;;;;3.17;2.20;;;27.20;10.90;;;;;;6216387;23;20261;-90
2022/05/11 14:07:26;;;;;;;3.47;2.35;;;27.10;12.00;;;;;;6216355;23;20208;-91
2022/05/11 14:09:55;;;;;;;4.50;2.42;;;27.10;11.90;;;;;;6216608;23;20198;-90
2022/05/11 14:12:23;;;;;;;7.07;2.40;;;27.10;11.30;;;;;;6219268;23;20162;-90
2022/05/11 14:14:52;;;;;;;7.18;2.30;;;27.00;11.40;;;;;;6216817;23;20202;-90
2022/05/11 14:17:30;;;;;;;5.38;2.47;;;26.90;12.30;;;;;;6220039;23;20158;-90
2022/05/11 14:20:06;;;;;;;4.68;2.50;;;26.80;12.70;;;;;;6218607;23;20212;-90
2022/05/11 14:23:10;;;;;;;5.50;2.60;;;26.80;13.50;;;;;;6217808;23;20684;-90
2022/05/11 14:25:42;;;;;;;7.25;2.58;;;26.90;12.20;;;;;;6217283;23;20251;-91
2022/05/11 14:28:09;;;;;;;5.28;2.58;;;26.80;13.20;;;;;;6234522;23;20168;-90
2022/05/11 14:30:45;;;;;;;3.70;2.35;;;26.70;14.00;;;;;;6219279;23;20281;-91
2022/05/11 14:33:35;;;;;;;6.28;2.70;;;26.70;13.00;;;;;;6220541;23;20189;-90
2022/05/11 14:36:29;;;;;;;3.75;2.42;;;26.70;12.60;;;;;;6215772;23;20186;-92
2022/05/11 14:39:05;;;;;;;3.72;2.53;;;26.80;13.00;;;;;;6214768;23;20624;-93
2022/05/11 14:41:37;;;;;;;4.13;2.28;;;26.80;12.80;;;;;;6214715;23;20190;-92
2022/05/11 14:44:05;;;;;;;6.78;4.03;;;26.90;12.10;;;;;;6217057;23;20236;-88
2022/05/11 14:46:38;;;;;;;6.90;2.55;;;26.80;12.20;;;;;;6216383;23;20186;-91
2022/05/11 14:49:07;;;;;;;7.00;6.28;;;26.80;12.60;;;;;;6223367;23;20201;-89
2022/05/11 14:52:00;;;;;;;4.15;3.25;;;26.50;12.60;;;;;;6224281;23;20484;-91
2022/05/11 14:54:26;;;;;;;4.97;3.10;;;26.60;14.30;;;;;;6217962;23;20197;-90
2022/05/11 15:02:34;;;;;;;9.73;2.88;;;26.50;14.90;;;;;;6222249;23;20166;-88
2022/05/11 15:05:04;;;;;;;4.00;3.00;;;26.60;14.90;;;;;;6219959;23;20205;-90
2022/05/11 15:07:31;;;;;;;4.65;3.60;;;26.60;14.50;;;;;;6225902;23;20251;-89
2022/05/11 15:10:06;;;;;;;3.15;2.50;;;26.50;12.80;;;;;;6230079;23;20212;-90
2022/05/11 15:15:18;;;;;;;4.82;2.60;;;26.40;13.80;;;;;;6230058;23;20216;-88
2022/05/11 15:17:55;;;;;;;4.70;2.60;;;26.40;14.80;;;;;;6232210;23;20245;-88
2022/05/11 15:20:29;;;;;;;3.08;2.70;;;26.40;14.90;;;;;;6229156;23;20273;-88
2022/05/11 15:23:12;;;;;;;4.25;2.40;;;26.40;15.30;;;;;;6222460;23;20528;-90
2022/05/11 15:25:40;;;;;;;3.60;2.53;;;26.40;14.40;;;;;;6213358;23;20205;-90
2022/05/11 15:28:41;;;;;;;2.92;2.30;;;26.20;13.50;;;;;;6216484;23;20166;-90
2022/05/11 15:31:11;;;;;;;7.00;2.63;;;26.10;14.50;;;;;;6216136;23;20610;-90
2022/05/11 15:34:19;;;;;;;8.45;2.90;;;26.10;14.70;;;;;;6218211;23;20162;-90
2022/05/11 15:36:49;;;;;;;2.63;2.40;;;26.00;14.50;;;;;;6222293;23;20158;-91
2022/05/11 15:39:24;;;;;;;3.28;2.40;;;26.00;14.70;;;;;;6217385;23;20232;-90
2022/05/11 15:42:13;;;;;;;5.13;2.25;;;26.10;14.70;;;;;;6218054;23;20825;-87
2022/05/11 15:44:40;;;;;;;6.93;2.55;;;26.10;14.70;;;;;;6215235;23;20198;-91
2022/05/11 15:47:17;;;;;;;2.90;2.28;;;26.20;14.00;;;;;;6214720;23;20637;-90
2022/05/11 15:49:44;;;;;;;3.05;2.33;;;26.30;13.50;;;;;;6216489;23;20201;-91
2022/05/11 15:52:20;;;;;;;6.15;3.88;;;26.20;13.20;;;;;;6217554;23;20173;-92
2022/05/11 15:54:48;;;;;;;6.15;2.58;;;26.10;11.60;;;;;;6216238;23;20205;-94
2022/05/11 15:57:18;;;;;;;5.05;2.83;;;26.00;12.20;;;;;;6223606;23;20200;-88
2022/05/11 16:00:23;;;;;;;3.72;2.28;;;26.10;11.50;;;;;;6219889;23;20206;-93
2022/05/11 16:03:17;;;;;;;6.75;2.50;;;26.20;11.00;;;;;;6219819;23;20198;-90
2022/05/11 16:05:47;;;;;;;5.80;2.90;;;26.20;11.40;;;;;;6216271;23;20216;-92
2022/05/11 16:08:36;;;;;;;6.75;2.40;;;26.10;10.30;;;;;;6216255;23;20181;-91
2022/05/11 16:11:04;;;;;;;4.55;2.58;;;26.00;11.10;;;;;;6215470;23;20201;-91
2022/05/11 16:13:49;;;;;;;6.63;2.70;;;26.00;11.90;;;;;;6217198;23;20166;-91
2022/05/11 16:16:16;;;;;;;5.93;3.10;;;26.00;11.50;;;;;;6211698;23;20193;-93
2022/05/11 16:21:29;;;;;;;3.28;2.10;;;25.90;11.50;;;;;;6221529;23;20538;-91
2022/05/11 16:24:09;;;;;;;5.55;2.38;;;26.00;11.60;;;;;;6219105;23;20666;-93
2022/05/11 16:26:42;;;;;;;3.83;2.40;;;25.90;10.10;;;;;;6225672;23;20211;-90
2022/05/11 16:29:09;;;;;;;4.10;2.00;;;25.80;11.50;;;;;;6222529;23;20198;-92
2022/05/11 16:31:54;;;;;;;3.90;2.33;;;25.70;10.10;;;;;;6228924;23;20162;-91
2022/05/11 16:34:29;;;;;;;4.00;2.13;;;25.60;10.60;;;;;;6225345;23;20582;-90
2022/05/11 16:36:59;;;;;;;4.20;2.00;;;25.50;10.80;;;;;;6227431;23;20172;-90
2022/05/11 16:39:31;;;;;;;5.03;2.60;;;25.50;9.30;;;;;;6223930;23;20554;-90
2022/05/11 16:41:59;;;;;;;4.70;2.58;;;25.50;9.50;;;;;;6222819;23;20225;-91
2022/05/11 16:44:33;;;;;;;4.05;2.22;;;25.50;10.00;;;;;;6224906;23;20233;-91
2022/05/11 16:47:13;;;;;;;4.78;2.10;;;25.40;10.30;;;;;;6222755;23;20216;-92
2022/05/11 16:49:49;;;;;;;6.10;2.00;;;25.30;10.00;;;;;;6224405;23;20204;-89
2022/05/11 16:52:20;;;;;;;4.97;2.58;;;25.30;9.60;;;;;;6227988;23;20201;-91
2022/05/11 16:55:01;;;;;;;7.38;2.30;;;25.20;10.30;;;;;;6224132;23;20685;-91
2022/05/11 16:57:29;;;;;;;3.35;2.20;;;25.10;10.40;;;;;;6215860;23;20210;-90
2022/05/11 16:59:59;;;;;;;3.30;2.05;;;25.00;10.50;;;;;;6217800;23;20248;-90
2022/05/11 17:02:41;;;;;;;3.47;2.00;;;25.00;11.30;;;;;;6223704;23;20185;-90
2022/05/11 17:05:12;;;;;;;3.38;2.00;;;24.90;10.60;;;;;;6221476;23;20210;-90
2022/05/11 17:07:40;;;;;;;3.83;2.40;;;24.90;10.90;;;;;;6223693;23;20553;-91
2022/05/11 17:10:09;;;;;;;8.07;2.38;;;24.90;11.00;;;;;;6227991;23;20332;-90
2022/05/11 17:12:54;;;;;;;4.53;2.30;;;24.80;10.60;;;;;;6227946;23;20178;-90
2022/05/11 17:15:24;;;;;;;2.70;2.28;;;24.80;10.10;;;;;;6225623;23;20205;-92
2022/05/11 17:53:49;;;;;;;54.28;35.30;;;23.90;12.00;;;;;;5741213;25;20189;-91
2022/05/11 18:27:26;;;;;;;;;;;;;;;;;;;;;
2022/05/11 18:47:42;;;;;;;5.43;3.60;;;21.90;15.80;;;;;;5729089;25;20268;-91
2022/05/11 19:07:46;;;;;;;6.13;2.97;;;21.20;18.60;;;;;;6056294;23;20264;-90
2022/05/11 19:17:17;;;;;;;4.22;2.80;;;20.90;19.50;;;;;;5000136;28;20209;-91
2022/05/11 19:19:53;;;;;;;6.00;3.03;;;20.80;19.50;;;;;;4953808;28;20225;-91
2022/05/11 19:22:29;;;;;;;5.57;3.00;;;20.70;20.00;;;;;;4947750;29;20208;-91
2022/05/11 19:25:07;;;;;;;5.30;2.75;;;20.70;20.80;;;;;;4949573;28;20276;-92
2022/05/11 19:27:34;;;;;;;4.43;3.33;;;20.60;20.80;;;;;;4949332;28;20271;-92
2022/05/11 19:30:14;;;;;;;6.57;5.50;;;20.50;21.20;;;;;;4966131;28;20227;-91
2022/05/11 19:32:59;;;;;;;5.25;3.55;;;20.50;21.10;;;;;;4968752;28;20225;-90
2022/05/11 19:35:29;;;;;;;7.00;3.70;;;20.40;21.80;;;;;;4989511;28;20236;-90
2022/05/11 19:38:01;;;;;;;5.75;3.47;;;20.40;21.20;;;;;;4954412;28;20201;-90
2022/05/11 19:40:30;;;;;;;4.43;3.45;;;20.30;21.60;;;;;;4950394;28;20241;-90
2022/05/11 19:43:35;;;;;;;5.43;3.15;;;20.30;22.10;;;;;;4961688;28;20209;-91
2022/05/11 20:08:42;;;;;;;;;;;;;;;;;;;;;
2022/05/11 20:11:19;;;;;;;5.28;3.25;;;19.70;26.10;;;;;;4916168;28;20199;-90
2022/05/11 21:57:17;;;;;;;3.80;3.40;;;18.70;35.30;;;;;;4849524;29;20301;-89
2022/05/11 23:14:46;;;;;;;4.45;3.85;;;18.00;44.80;;;;;;4879494;29;20223;-90
2022/05/11 23:22:16;;;;;;;4.93;3.70;;;17.90;44.90;;;;;;4819134;29;20230;-90
2022/05/11 23:31:36;;;;;;;4.75;3.67;;;17.80;45.70;;;;;;4778652;30;20348;-89
2022/05/11 23:34:36;;;;;;;4.80;4.00;;;17.80;46.30;;;;;;4836219;29;20235;-90
2022/05/11 23:59:45;;;;;;;5.47;3.67;;;17.50;53.60;;;;;;4740498;30;20236;-89
